sensor_id;sensor_type;location;lat;lon;timestamp;temperature;humidity
17399;DHT22;8817;48.170;8.592;2023-04-03T00:00:29;9.80;53.10
17399;DHT22;8817;48.170;8.592;2023-04-03T00:02:57;9.80;53.20
17399;DHT22;8817;48.170;8.592;2023-04-03T00:05:24;9.80;53.20
17399;DHT22;8817;48.170;8.592;2023-04-03T00:07:51;9.80;53.20
17399;DHT22;8817;48.170;8.592;2023-04-03T00:10:18;9.80;53.20
17399;DHT22;8817;48.170;8.592;2023-04-03T00:12:46;9.80;53.20
17399;DHT22;8817;48.170;8.592;2023-04-03T00:15:14;9.80;53.20
17399;DHT22;8817;48.170;8.592;2023-04-03T00:17:41;9.80;53.10
17399;DHT22;8817;48.170;8.592;2023-04-03T00:20:08;9.80;53.10
17399;DHT22;8817;48.170;8.592;2023-04-03T00:22:35;9.80;53.20
17399;DHT22;8817;48.170;8.592;2023-04-03T00:25:02;9.80;53.20
17399;DHT22;8817;48.170;8.592;2023-04-03T00:27:29;9.80;53.20
17399;DHT22;8817;48.170;8.592;2023-04-03T00:29:57;9.80;53.20
17399;DHT22;8817;48.170;8.592;2023-04-03T00:32:24;9.70;53.10
17399;DHT22;8817;48.170;8.592;2023-04-03T00:34:51;9.80;53.10
17399;DHT22;8817;48.170;8.592;2023-04-03T00:37:18;9.70;53.10
17399;DHT22;8817;48.170;8.592;2023-04-03T00:39:44;9.70;53.70
17399;DHT22;8817;48.170;8.592;2023-04-03T00:42:11;9.70;53.20
17399;DHT22;8817;48.170;8.592;2023-04-03T00:47:44;9.70;53.10
17399;DHT22;8817;48.170;8.592;2023-04-03T00:50:11;9.70;53.10
17399;DHT22;8817;48.170;8.592;2023-04-03T00:52:38;9.70;53.10
17399;DHT22;8817;48.170;8.592;2023-04-03T00:55:07;9.70;53.10
17399;DHT22;8817;48.170;8.592;2023-04-03T00:57:35;9.70;53.10
17399;DHT22;8817;48.170;8.592;2023-04-03T01:00:05;9.70;53.10
17399;DHT22;8817;48.170;8.592;2023-04-03T01:02:34;9.70;53.10
17399;DHT22;8817;48.170;8.592;2023-04-03T01:05:04;9.60;53.00
17399;DHT22;8817;48.170;8.592;2023-04-03T01:07:32;9.60;53.00
17399;DHT22;8817;48.170;8.592;2023-04-03T01:10:04;9.60;53.00
17399;DHT22;8817;48.170;8.592;2023-04-03T01:12:34;9.60;52.90
17399;DHT22;8817;48.170;8.592;2023-04-03T01:15:03;9.60;52.90
17399;DHT22;8817;48.170;8.592;2023-04-03T01:17:34;9.50;52.90
17399;DHT22;8817;48.170;8.592;2023-04-03T01:23:22;9.50;52.90
17399;DHT22;8817;48.170;8.592;2023-04-03T01:25:53;9.40;53.50
17399;DHT22;8817;48.170;8.592;2023-04-03T01:28:22;9.40;53.00
17399;DHT22;8817;48.170;8.592;2023-04-03T01:30:56;9.40;52.90
17399;DHT22;8817;48.170;8.592;2023-04-03T01:33:26;9.40;53.00
17399;DHT22;8817;48.170;8.592;2023-04-03T01:35:53;9.40;53.00
17399;DHT22;8817;48.170;8.592;2023-04-03T01:38:20;9.40;53.00
17399;DHT22;8817;48.170;8.592;2023-04-03T01:40:47;9.40;53.00
17399;DHT22;8817;48.170;8.592;2023-04-03T01:43:14;9.40;53.00
17399;DHT22;8817;48.170;8.592;2023-04-03T01:45:41;9.40;53.10
17399;DHT22;8817;48.170;8.592;2023-04-03T01:48:08;9.40;53.10
17399;DHT22;8817;48.170;8.592;2023-04-03T01:50:36;9.40;53.00
17399;DHT22;8817;48.170;8.592;2023-04-03T01:53:03;9.40;53.00
17399;DHT22;8817;48.170;8.592;2023-04-03T01:55:30;9.40;53.00
17399;DHT22;8817;48.170;8.592;2023-04-03T01:57:57;9.30;52.90
17399;DHT22;8817;48.170;8.592;2023-04-03T02:00:23;9.40;53.00
17399;DHT22;8817;48.170;8.592;2023-04-03T02:02:51;9.30;52.90
17399;DHT22;8817;48.170;8.592;2023-04-03T02:05:18;9.30;53.50
17399;DHT22;8817;48.170;8.592;2023-04-03T02:07:47;9.30;52.90
17399;DHT22;8817;48.170;8.592;2023-04-03T02:10:14;9.30;53.00
17399;DHT22;8817;48.170;8.592;2023-04-03T02:12:41;9.30;53.00
17399;DHT22;8817;48.170;8.592;2023-04-03T02:15:08;9.30;53.00
17399;DHT22;8817;48.170;8.592;2023-04-03T02:17:35;9.30;53.60
17399;DHT22;8817;48.170;8.592;2023-04-03T02:20:03;9.30;53.00
17399;DHT22;8817;48.170;8.592;2023-04-03T02:22:30;9.30;53.00
17399;DHT22;8817;48.170;8.592;2023-04-03T02:24:58;9.30;53.00
17399;DHT22;8817;48.170;8.592;2023-04-03T02:27:26;9.30;53.00
17399;DHT22;8817;48.170;8.592;2023-04-03T02:29:53;9.30;53.00
17399;DHT22;8817;48.170;8.592;2023-04-03T02:32:20;9.30;53.00
17399;DHT22;8817;48.170;8.592;2023-04-03T02:34:47;9.30;53.00
17399;DHT22;8817;48.170;8.592;2023-04-03T02:37:14;9.30;53.00
17399;DHT22;8817;48.170;8.592;2023-04-03T02:39:40;9.30;53.00
17399;DHT22;8817;48.170;8.592;2023-04-03T02:42:10;9.30;52.90
17399;DHT22;8817;48.170;8.592;2023-04-03T02:44:37;9.30;52.90
17399;DHT22;8817;48.170;8.592;2023-04-03T02:47:04;9.20;53.40
17399;DHT22;8817;48.170;8.592;2023-04-03T02:49:31;9.20;52.80
17399;DHT22;8817;48.170;8.592;2023-04-03T02:51:58;9.20;52.80
17399;DHT22;8817;48.170;8.592;2023-04-03T02:54:25;9.20;52.90
17399;DHT22;8817;48.170;8.592;2023-04-03T02:56:54;9.20;52.80
17399;DHT22;8817;48.170;8.592;2023-04-03T02:59:22;9.10;52.80
17399;DHT22;8817;48.170;8.592;2023-04-03T03:01:49;9.10;52.80
17399;DHT22;8817;48.170;8.592;2023-04-03T03:04:16;9.10;52.80
17399;DHT22;8817;48.170;8.592;2023-04-03T03:06:43;9.10;52.80
17399;DHT22;8817;48.170;8.592;2023-04-03T03:09:10;9.10;52.80
17399;DHT22;8817;48.170;8.592;2023-04-03T03:11:38;9.10;52.80
17399;DHT22;8817;48.170;8.592;2023-04-03T03:14:05;9.00;52.80
17399;DHT22;8817;48.170;8.592;2023-04-03T03:16:33;9.00;52.80
17399;DHT22;8817;48.170;8.592;2023-04-03T03:19:00;9.00;52.80
17399;DHT22;8817;48.170;8.592;2023-04-03T03:21:28;9.00;52.80
17399;DHT22;8817;48.170;8.592;2023-04-03T03:23:55;9.00;52.90
17399;DHT22;8817;48.170;8.592;2023-04-03T03:26:22;9.00;52.90
17399;DHT22;8817;48.170;8.592;2023-04-03T03:28:49;9.00;52.90
17399;DHT22;8817;48.170;8.592;2023-04-03T03:31:16;9.00;52.90
17399;DHT22;8817;48.170;8.592;2023-04-03T03:33:44;9.00;52.90
17399;DHT22;8817;48.170;8.592;2023-04-03T03:36:11;9.00;52.90
17399;DHT22;8817;48.170;8.592;2023-04-03T03:38:38;9.00;52.90
17399;DHT22;8817;48.170;8.592;2023-04-03T03:41:05;9.00;52.90
17399;DHT22;8817;48.170;8.592;2023-04-03T03:43:32;9.00;52.80
17399;DHT22;8817;48.170;8.592;2023-04-03T03:45:59;8.90;52.80
17399;DHT22;8817;48.170;8.592;2023-04-03T03:48:26;9.00;52.90
17399;DHT22;8817;48.170;8.592;2023-04-03T03:50:54;8.90;52.80
17399;DHT22;8817;48.170;8.592;2023-04-03T03:53:21;8.90;52.90
17399;DHT22;8817;48.170;8.592;2023-04-03T03:55:48;9.00;52.90
17399;DHT22;8817;48.170;8.592;2023-04-03T03:58:14;9.00;52.90
17399;DHT22;8817;48.170;8.592;2023-04-03T04:00:41;9.00;52.90
17399;DHT22;8817;48.170;8.592;2023-04-03T04:03:08;9.00;52.90
17399;DHT22;8817;48.170;8.592;2023-04-03T04:05:35;9.00;52.90
17399;DHT22;8817;48.170;8.592;2023-04-03T04:08:03;9.00;53.00
17399;DHT22;8817;48.170;8.592;2023-04-03T04:10:30;9.00;52.90
17399;DHT22;8817;48.170;8.592;2023-04-03T04:12:57;9.00;53.00
17399;DHT22;8817;48.170;8.592;2023-04-03T04:15:25;9.00;53.50
17399;DHT22;8817;48.170;8.592;2023-04-03T04:17:52;9.00;52.90
17399;DHT22;8817;48.170;8.592;2023-04-03T04:20:19;9.00;52.90
17399;DHT22;8817;48.170;8.592;2023-04-03T04:22:46;9.00;52.90
17399;DHT22;8817;48.170;8.592;2023-04-03T04:25:14;9.00;52.80
17399;DHT22;8817;48.170;8.592;2023-04-03T04:27:41;9.00;52.80
17399;DHT22;8817;48.170;8.592;2023-04-03T04:30:09;9.00;52.80
17399;DHT22;8817;48.170;8.592;2023-04-03T04:32:37;9.00;52.90
17399;DHT22;8817;48.170;8.592;2023-04-03T04:35:04;9.00;52.90
17399;DHT22;8817;48.170;8.592;2023-04-03T04:37:31;9.00;53.00
17399;DHT22;8817;48.170;8.592;2023-04-03T04:39:58;9.00;52.90
17399;DHT22;8817;48.170;8.592;2023-04-03T04:42:27;9.00;52.90
17399;DHT22;8817;48.170;8.592;2023-04-03T04:44:53;9.00;52.90
17399;DHT22;8817;48.170;8.592;2023-04-03T04:47:20;9.00;52.90
17399;DHT22;8817;48.170;8.592;2023-04-03T04:49:47;9.00;52.90
17399;DHT22;8817;48.170;8.592;2023-04-03T04:52:14;9.00;52.90
17399;DHT22;8817;48.170;8.592;2023-04-03T04:54:41;9.00;52.90
17399;DHT22;8817;48.170;8.592;2023-04-03T04:57:08;9.00;52.90
17399;DHT22;8817;48.170;8.592;2023-04-03T04:59:37;9.00;52.90
17399;DHT22;8817;48.170;8.592;2023-04-03T05:02:04;9.00;52.90
17399;DHT22;8817;48.170;8.592;2023-04-03T05:04:31;9.00;52.90
17399;DHT22;8817;48.170;8.592;2023-04-03T05:06:58;9.10;52.90
17399;DHT22;8817;48.170;8.592;2023-04-03T05:09:25;9.10;52.80
17399;DHT22;8817;48.170;8.592;2023-04-03T05:11:52;9.10;52.80
17399;DHT22;8817;48.170;8.592;2023-04-03T05:14:19;9.00;52.80
17399;DHT22;8817;48.170;8.592;2023-04-03T05:16:48;9.00;52.80
17399;DHT22;8817;48.170;8.592;2023-04-03T05:19:18;9.00;52.80
17399;DHT22;8817;48.170;8.592;2023-04-03T05:21:45;9.00;52.80
17399;DHT22;8817;48.170;8.592;2023-04-03T05:24:12;9.00;52.90
17399;DHT22;8817;48.170;8.592;2023-04-03T05:26:39;9.00;52.80
17399;DHT22;8817;48.170;8.592;2023-04-03T05:29:06;9.10;52.90
17399;DHT22;8817;48.170;8.592;2023-04-03T05:31:33;9.00;52.80
17399;DHT22;8817;48.170;8.592;2023-04-03T05:34:01;9.00;52.80
17399;DHT22;8817;48.170;8.592;2023-04-03T05:36:28;9.00;52.80
17399;DHT22;8817;48.170;8.592;2023-04-03T05:38:55;9.00;52.80
17399;DHT22;8817;48.170;8.592;2023-04-03T05:41:23;9.00;52.80
17399;DHT22;8817;48.170;8.592;2023-04-03T05:43:50;9.00;52.80
17399;DHT22;8817;48.170;8.592;2023-04-03T05:46:18;9.00;52.80
17399;DHT22;8817;48.170;8.592;2023-04-03T05:48:46;9.00;52.80
17399;DHT22;8817;48.170;8.592;2023-04-03T05:51:17;8.90;52.70
17399;DHT22;8817;48.170;8.592;2023-04-03T05:53:44;8.90;52.70
17399;DHT22;8817;48.170;8.592;2023-04-03T05:56:13;8.90;52.80
17399;DHT22;8817;48.170;8.592;2023-04-03T05:58:40;8.90;52.70
17399;DHT22;8817;48.170;8.592;2023-04-03T06:01:07;8.90;52.70
17399;DHT22;8817;48.170;8.592;2023-04-03T06:03:35;8.90;52.70
17399;DHT22;8817;48.170;8.592;2023-04-03T06:06:04;8.90;52.70
17399;DHT22;8817;48.170;8.592;2023-04-03T06:08:32;8.90;52.70
17399;DHT22;8817;48.170;8.592;2023-04-03T06:11:00;8.90;52.70
17399;DHT22;8817;48.170;8.592;2023-04-03T06:13:28;8.90;52.80
17399;DHT22;8817;48.170;8.592;2023-04-03T06:15:55;8.90;52.80
17399;DHT22;8817;48.170;8.592;2023-04-03T06:18:22;8.90;52.90
17399;DHT22;8817;48.170;8.592;2023-04-03T06:20:49;8.90;52.80
17399;DHT22;8817;48.170;8.592;2023-04-03T06:23:16;8.90;52.80
17399;DHT22;8817;48.170;8.592;2023-04-03T06:25:45;8.90;52.80
17399;DHT22;8817;48.170;8.592;2023-04-03T06:28:12;8.90;52.80
17399;DHT22;8817;48.170;8.592;2023-04-03T06:30:39;8.90;52.80
17399;DHT22;8817;48.170;8.592;2023-04-03T06:33:06;8.90;52.80
17399;DHT22;8817;48.170;8.592;2023-04-03T06:35:33;8.90;52.80
17399;DHT22;8817;48.170;8.592;2023-04-03T06:38:00;8.90;52.80
17399;DHT22;8817;48.170;8.592;2023-04-03T06:40:29;8.90;52.80
17399;DHT22;8817;48.170;8.592;2023-04-03T06:42:58;8.90;52.80
17399;DHT22;8817;48.170;8.592;2023-04-03T06:45:24;8.90;52.70
17399;DHT22;8817;48.170;8.592;2023-04-03T06:47:52;8.90;52.70
17399;DHT22;8817;48.170;8.592;2023-04-03T06:50:19;8.90;52.70
17399;DHT22;8817;48.170;8.592;2023-04-03T06:52:46;8.90;52.70
17399;DHT22;8817;48.170;8.592;2023-04-03T06:55:12;8.90;52.70
17399;DHT22;8817;48.170;8.592;2023-04-03T06:57:39;9.00;52.80
17399;DHT22;8817;48.170;8.592;2023-04-03T07:00:10;8.90;52.70
17399;DHT22;8817;48.170;8.592;2023-04-03T07:02:37;8.90;52.70
17399;DHT22;8817;48.170;8.592;2023-04-03T07:05:04;8.90;52.70
17399;DHT22;8817;48.170;8.592;2023-04-03T07:07:32;8.90;52.70
17399;DHT22;8817;48.170;8.592;2023-04-03T07:09:59;8.90;52.70
17399;DHT22;8817;48.170;8.592;2023-04-03T07:12:26;8.90;52.70
17399;DHT22;8817;48.170;8.592;2023-04-03T07:14:53;8.90;52.60
17399;DHT22;8817;48.170;8.592;2023-04-03T07:17:21;8.90;53.20
17399;DHT22;8817;48.170;8.592;2023-04-03T07:19:48;8.90;52.60
17399;DHT22;8817;48.170;8.592;2023-04-03T07:22:15;8.90;52.60
17399;DHT22;8817;48.170;8.592;2023-04-03T07:24:42;8.90;52.60
17399;DHT22;8817;48.170;8.592;2023-04-03T07:27:09;8.90;52.60
17399;DHT22;8817;48.170;8.592;2023-04-03T07:29:38;8.90;52.50
17399;DHT22;8817;48.170;8.592;2023-04-03T07:32:06;8.80;52.50
17399;DHT22;8817;48.170;8.592;2023-04-03T07:34:34;8.90;52.60
17399;DHT22;8817;48.170;8.592;2023-04-03T07:37:01;8.90;52.60
17399;DHT22;8817;48.170;8.592;2023-04-03T07:39:28;8.80;52.60
17399;DHT22;8817;48.170;8.592;2023-04-03T07:41:55;8.90;52.70
17399;DHT22;8817;48.170;8.592;2023-04-03T07:44:22;8.90;52.70
17399;DHT22;8817;48.170;8.592;2023-04-03T07:46:49;8.90;52.80
17399;DHT22;8817;48.170;8.592;2023-04-03T07:49:16;8.90;52.70
17399;DHT22;8817;48.170;8.592;2023-04-03T07:51:45;8.90;52.80
17399;DHT22;8817;48.170;8.592;2023-04-03T07:54:12;8.90;52.80
17399;DHT22;8817;48.170;8.592;2023-04-03T07:56:39;9.00;52.90
17399;DHT22;8817;48.170;8.592;2023-04-03T07:59:06;9.00;52.90
17399;DHT22;8817;48.170;8.592;2023-04-03T08:01:33;9.00;52.90
17399;DHT22;8817;48.170;8.592;2023-04-03T08:04:00;9.10;53.00
17399;DHT22;8817;48.170;8.592;2023-04-03T08:06:27;9.10;53.00
17399;DHT22;8817;48.170;8.592;2023-04-03T08:08:57;9.20;53.10
17399;DHT22;8817;48.170;8.592;2023-04-03T08:11:24;9.20;53.00
17399;DHT22;8817;48.170;8.592;2023-04-03T08:13:52;9.30;53.00
17399;DHT22;8817;48.170;8.592;2023-04-03T08:16:22;9.30;53.00
17399;DHT22;8817;48.170;8.592;2023-04-03T08:18:51;9.40;53.00
17399;DHT22;8817;48.170;8.592;2023-04-03T08:21:18;9.40;53.00
17399;DHT22;8817;48.170;8.592;2023-04-03T08:23:47;9.50;53.00
17399;DHT22;8817;48.170;8.592;2023-04-03T08:26:18;9.50;53.00
17399;DHT22;8817;48.170;8.592;2023-04-03T08:28:45;9.60;53.00
17399;DHT22;8817;48.170;8.592;2023-04-03T08:31:15;9.60;53.00
17399;DHT22;8817;48.170;8.592;2023-04-03T08:33:42;9.60;53.00
17399;DHT22;8817;48.170;8.592;2023-04-03T08:36:17;9.70;53.00
17399;DHT22;8817;48.170;8.592;2023-04-03T08:38:44;9.70;52.80
17399;DHT22;8817;48.170;8.592;2023-04-03T08:41:16;9.70;52.80
17399;DHT22;8817;48.170;8.592;2023-04-03T08:43:56;9.70;52.70
17399;DHT22;8817;48.170;8.592;2023-04-03T08:46:32;9.80;53.40
17399;DHT22;8817;48.170;8.592;2023-04-03T08:49:02;9.80;52.80
17399;DHT22;8817;48.170;8.592;2023-04-03T08:51:31;9.80;52.80
17399;DHT22;8817;48.170;8.592;2023-04-03T08:54:01;9.90;52.90
17399;DHT22;8817;48.170;8.592;2023-04-03T08:56:31;9.90;52.90
17399;DHT22;8817;48.170;8.592;2023-04-03T08:59:04;9.90;52.80
17399;DHT22;8817;48.170;8.592;2023-04-03T09:01:35;10.00;52.80
17399;DHT22;8817;48.170;8.592;2023-04-03T09:04:09;10.00;52.70
17399;DHT22;8817;48.170;8.592;2023-04-03T09:06:38;10.00;52.70
17399;DHT22;8817;48.170;8.592;2023-04-03T09:09:13;10.00;52.60
17399;DHT22;8817;48.170;8.592;2023-04-03T09:11:50;10.00;52.60
17399;DHT22;8817;48.170;8.592;2023-04-03T09:14:26;10.00;52.60
17399;DHT22;8817;48.170;8.592;2023-04-03T09:16:59;10.00;52.60
17399;DHT22;8817;48.170;8.592;2023-04-03T09:19:36;10.00;52.70
17399;DHT22;8817;48.170;8.592;2023-04-03T09:22:13;10.00;52.70
17399;DHT22;8817;48.170;8.592;2023-04-03T09:24:43;10.10;52.80
17399;DHT22;8817;48.170;8.592;2023-04-03T09:27:13;10.10;52.70
17399;DHT22;8817;48.170;8.592;2023-04-03T09:29:42;10.10;52.60
17399;DHT22;8817;48.170;8.592;2023-04-03T09:32:20;10.10;52.60
17399;DHT22;8817;48.170;8.592;2023-04-03T09:34:49;10.10;52.70
17399;DHT22;8817;48.170;8.592;2023-04-03T09:37:36;10.20;52.70
17399;DHT22;8817;48.170;8.592;2023-04-03T09:40:04;10.10;52.60
17399;DHT22;8817;48.170;8.592;2023-04-03T09:42:34;10.20;52.70
17399;DHT22;8817;48.170;8.592;2023-04-03T09:45:18;10.20;52.70
17399;DHT22;8817;48.170;8.592;2023-04-03T09:47:47;10.20;52.70
17399;DHT22;8817;48.170;8.592;2023-04-03T09:50:21;10.20;52.70
17399;DHT22;8817;48.170;8.592;2023-04-03T09:52:50;10.20;52.70
17399;DHT22;8817;48.170;8.592;2023-04-03T09:55:18;10.20;52.70
17399;DHT22;8817;48.170;8.592;2023-04-03T09:57:49;10.30;52.80
17399;DHT22;8817;48.170;8.592;2023-04-03T10:00:21;10.30;52.80
17399;DHT22;8817;48.170;8.592;2023-04-03T10:02:51;10.30;52.80
17399;DHT22;8817;48.170;8.592;2023-04-03T10:05:32;10.30;52.80
17399;DHT22;8817;48.170;8.592;2023-04-03T10:08:21;10.40;52.90
17399;DHT22;8817;48.170;8.592;2023-04-03T10:11:07;10.40;52.90
17399;DHT22;8817;48.170;8.592;2023-04-03T10:13:49;10.50;52.90
17399;DHT22;8817;48.170;8.592;2023-04-03T10:16:18;10.50;52.80
17399;DHT22;8817;48.170;8.592;2023-04-03T10:18:49;10.50;52.70
17399;DHT22;8817;48.170;8.592;2023-04-03T10:21:29;10.60;52.70
17399;DHT22;8817;48.170;8.592;2023-04-03T10:24:08;10.60;52.80
17399;DHT22;8817;48.170;8.592;2023-04-03T10:26:41;10.60;52.80
17399;DHT22;8817;48.170;8.592;2023-04-03T10:29:19;10.70;52.90
17399;DHT22;8817;48.170;8.592;2023-04-03T10:31:56;10.70;52.90
17399;DHT22;8817;48.170;8.592;2023-04-03T10:34:30;10.70;52.90
17399;DHT22;8817;48.170;8.592;2023-04-03T10:37:05;10.80;52.90
17399;DHT22;8817;48.170;8.592;2023-04-03T10:39:41;10.80;52.80
17399;DHT22;8817;48.170;8.592;2023-04-03T10:42:14;10.90;52.80
17399;DHT22;8817;48.170;8.592;2023-04-03T10:45:15;10.90;52.70
17399;DHT22;8817;48.170;8.592;2023-04-03T10:47:51;10.90;52.60
17399;DHT22;8817;48.170;8.592;2023-04-03T10:50:30;10.90;52.60
17399;DHT22;8817;48.170;8.592;2023-04-03T10:53:04;10.90;52.50
17399;DHT22;8817;48.170;8.592;2023-04-03T10:55:36;10.90;52.50
17399;DHT22;8817;48.170;8.592;2023-04-03T10:58:06;10.90;52.50
17399;DHT22;8817;48.170;8.592;2023-04-03T11:00:41;10.90;52.60
17399;DHT22;8817;48.170;8.592;2023-04-03T11:03:14;10.90;52.70
17399;DHT22;8817;48.170;8.592;2023-04-03T11:05:43;11.00;52.80
17399;DHT22;8817;48.170;8.592;2023-04-03T11:08:17;11.00;52.80
17399;DHT22;8817;48.170;8.592;2023-04-03T11:10:49;11.00;52.80
17399;DHT22;8817;48.170;8.592;2023-04-03T11:13:19;11.10;52.80
17399;DHT22;8817;48.170;8.592;2023-04-03T11:15:53;11.10;52.70
17399;DHT22;8817;48.170;8.592;2023-04-03T11:18:25;11.10;52.60
17399;DHT22;8817;48.170;8.592;2023-04-03T11:21:09;11.10;52.50
17399;DHT22;8817;48.170;8.592;2023-04-03T11:23:40;11.10;52.40
17399;DHT22;8817;48.170;8.592;2023-04-03T11:26:10;11.10;52.30
17399;DHT22;8817;48.170;8.592;2023-04-03T11:28:38;11.10;52.30
17399;DHT22;8817;48.170;8.592;2023-04-03T11:31:17;11.10;52.50
17399;DHT22;8817;48.170;8.592;2023-04-03T11:33:52;11.10;52.40
17399;DHT22;8817;48.170;8.592;2023-04-03T11:36:24;11.10;52.40
17399;DHT22;8817;48.170;8.592;2023-04-03T11:38:53;11.10;52.40
17399;DHT22;8817;48.170;8.592;2023-04-03T11:41:27;11.10;52.60
17399;DHT22;8817;48.170;8.592;2023-04-03T11:43:57;11.10;52.60
17399;DHT22;8817;48.170;8.592;2023-04-03T11:46:50;11.20;52.60
17399;DHT22;8817;48.170;8.592;2023-04-03T11:49:52;11.20;52.60
17399;DHT22;8817;48.170;8.592;2023-04-03T11:55:46;11.20;52.50
17399;DHT22;8817;48.170;8.592;2023-04-03T11:58:19;11.20;52.40
17399;DHT22;8817;48.170;8.592;2023-04-03T12:00:55;11.20;52.30
17399;DHT22;8817;48.170;8.592;2023-04-03T12:04:08;11.20;52.30
17399;DHT22;8817;48.170;8.592;2023-04-03T12:06:51;11.20;52.30
17399;DHT22;8817;48.170;8.592;2023-04-03T12:09:26;11.20;52.20
17399;DHT22;8817;48.170;8.592;2023-04-03T12:11:55;11.20;52.80
17399;DHT22;8817;48.170;8.592;2023-04-03T12:14:24;11.20;52.20
17399;DHT22;8817;48.170;8.592;2023-04-03T12:16:53;11.20;52.20
17399;DHT22;8817;48.170;8.592;2023-04-03T12:19:42;11.10;52.20
17399;DHT22;8817;48.170;8.592;2023-04-03T12:22:17;11.10;52.10
17399;DHT22;8817;48.170;8.592;2023-04-03T12:24:47;11.10;52.10
17399;DHT22;8817;48.170;8.592;2023-04-03T12:27:40;11.20;52.20
17399;DHT22;8817;48.170;8.592;2023-04-03T12:30:16;11.10;52.20
17399;DHT22;8817;48.170;8.592;2023-04-03T12:33:10;11.20;52.10
17399;DHT22;8817;48.170;8.592;2023-04-03T12:35:54;11.10;52.10
17399;DHT22;8817;48.170;8.592;2023-04-03T12:41:37;11.20;52.10
17399;DHT22;8817;48.170;8.592;2023-04-03T12:44:25;11.20;52.10
17399;DHT22;8817;48.170;8.592;2023-04-03T12:46:54;11.10;52.00
17399;DHT22;8817;48.170;8.592;2023-04-03T12:49:38;11.20;52.10
17399;DHT22;8817;48.170;8.592;2023-04-03T12:52:18;11.10;51.90
17399;DHT22;8817;48.170;8.592;2023-04-03T12:54:46;11.10;51.80
17399;DHT22;8817;48.170;8.592;2023-04-03T12:57:17;11.10;51.80
17399;DHT22;8817;48.170;8.592;2023-04-03T12:59:45;11.00;51.60
17399;DHT22;8817;48.170;8.592;2023-04-03T13:02:24;11.00;51.70
17399;DHT22;8817;48.170;8.592;2023-04-03T13:04:52;10.90;51.70
17399;DHT22;8817;48.170;8.592;2023-04-03T13:07:27;10.90;51.80
17399;DHT22;8817;48.170;8.592;2023-04-03T13:09:58;10.90;51.90
17399;DHT22;8817;48.170;8.592;2023-04-03T13:12:25;10.90;51.90
17399;DHT22;8817;48.170;8.592;2023-04-03T13:14:53;10.90;51.90
17399;DHT22;8817;48.170;8.592;2023-04-03T13:17:21;10.90;52.00
17399;DHT22;8817;48.170;8.592;2023-04-03T13:19:49;11.00;52.10
17399;DHT22;8817;48.170;8.592;2023-04-03T13:22:27;11.00;52.00
17399;DHT22;8817;48.170;8.592;2023-04-03T13:24:58;11.00;52.00
17399;DHT22;8817;48.170;8.592;2023-04-03T13:27:26;11.00;51.90
17399;DHT22;8817;48.170;8.592;2023-04-03T13:29:58;11.00;51.90
17399;DHT22;8817;48.170;8.592;2023-04-03T13:32:28;11.00;51.90
17399;DHT22;8817;48.170;8.592;2023-04-03T13:34:55;11.00;51.60
17399;DHT22;8817;48.170;8.592;2023-04-03T13:37:25;11.10;52.00
17399;DHT22;8817;48.170;8.592;2023-04-03T13:40:02;11.10;52.00
17399;DHT22;8817;48.170;8.592;2023-04-03T13:42:31;11.10;51.90
17399;DHT22;8817;48.170;8.592;2023-04-03T13:45:23;11.10;51.80
17399;DHT22;8817;48.170;8.592;2023-04-03T13:48:06;11.10;51.90
17399;DHT22;8817;48.170;8.592;2023-04-03T13:50:54;11.10;51.80
17399;DHT22;8817;48.170;8.592;2023-04-03T13:53:23;11.10;51.70
17399;DHT22;8817;48.170;8.592;2023-04-03T13:55:57;11.10;51.70
17399;DHT22;8817;48.170;8.592;2023-04-03T13:58:26;11.10;51.60
17399;DHT22;8817;48.170;8.592;2023-04-03T14:00:55;11.10;52.20
17399;DHT22;8817;48.170;8.592;2023-04-03T14:03:26;11.10;51.60
17399;DHT22;8817;48.170;8.592;2023-04-03T14:05:54;11.10;51.60
17399;DHT22;8817;48.170;8.592;2023-04-03T14:08:23;11.10;51.60
17399;DHT22;8817;48.170;8.592;2023-04-03T14:10:50;11.10;51.50
17399;DHT22;8817;48.170;8.592;2023-04-03T14:13:19;11.10;51.60
17399;DHT22;8817;48.170;8.592;2023-04-03T14:15:47;11.10;51.50
17399;DHT22;8817;48.170;8.592;2023-04-03T14:18:18;11.00;51.30
17399;DHT22;8817;48.170;8.592;2023-04-03T14:20:46;11.00;51.20
17399;DHT22;8817;48.170;8.592;2023-04-03T14:23:13;11.00;51.30
17399;DHT22;8817;48.170;8.592;2023-04-03T14:25:41;11.00;51.30
17399;DHT22;8817;48.170;8.592;2023-04-03T14:28:16;10.90;51.20
17399;DHT22;8817;48.170;8.592;2023-04-03T14:30:44;10.90;51.20
17399;DHT22;8817;48.170;8.592;2023-04-03T14:33:14;10.90;51.20
17399;DHT22;8817;48.170;8.592;2023-04-03T14:35:42;10.80;51.20
17399;DHT22;8817;48.170;8.592;2023-04-03T14:38:23;10.90;51.30
17399;DHT22;8817;48.170;8.592;2023-04-03T14:40:53;10.80;51.20
17399;DHT22;8817;48.170;8.592;2023-04-03T14:43:20;10.80;51.20
17399;DHT22;8817;48.170;8.592;2023-04-03T14:45:48;10.80;51.20
17399;DHT22;8817;48.170;8.592;2023-04-03T14:48:19;10.70;51.20
17399;DHT22;8817;48.170;8.592;2023-04-03T14:50:47;10.70;51.10
17399;DHT22;8817;48.170;8.592;2023-04-03T14:53:14;10.70;51.10
17399;DHT22;8817;48.170;8.592;2023-04-03T14:55:44;10.70;51.10
17399;DHT22;8817;48.170;8.592;2023-04-03T14:58:15;10.70;51.10
17399;DHT22;8817;48.170;8.592;2023-04-03T15:00:43;10.70;51.10
17399;DHT22;8817;48.170;8.592;2023-04-03T15:03:13;10.70;51.20
17399;DHT22;8817;48.170;8.592;2023-04-03T15:05:42;10.70;51.20
17399;DHT22;8817;48.170;8.592;2023-04-03T15:08:18;10.70;51.20
17399;DHT22;8817;48.170;8.592;2023-04-03T15:10:46;10.60;51.10
17399;DHT22;8817;48.170;8.592;2023-04-03T15:13:14;10.70;51.20
17399;DHT22;8817;48.170;8.592;2023-04-03T15:15:42;10.70;51.70
17399;DHT22;8817;48.170;8.592;2023-04-03T15:18:14;10.70;51.10
17399;DHT22;8817;48.170;8.592;2023-04-03T15:20:41;10.70;51.10
17399;DHT22;8817;48.170;8.592;2023-04-03T15:23:10;10.60;51.00
17399;DHT22;8817;48.170;8.592;2023-04-03T15:25:37;10.60;51.00
17399;DHT22;8817;48.170;8.592;2023-04-03T15:28:05;10.60;50.90
17399;DHT22;8817;48.170;8.592;2023-04-03T15:30:36;10.60;51.00
17399;DHT22;8817;48.170;8.592;2023-04-03T15:33:06;10.60;50.90
17399;DHT22;8817;48.170;8.592;2023-04-03T15:35:32;10.50;50.80
17399;DHT22;8817;48.170;8.592;2023-04-03T15:38:00;10.50;50.80
17399;DHT22;8817;48.170;8.592;2023-04-03T15:40:27;10.50;50.80
17399;DHT22;8817;48.170;8.592;2023-04-03T15:42:54;10.50;50.90
17399;DHT22;8817;48.170;8.592;2023-04-03T15:45:21;10.50;50.90
17399;DHT22;8817;48.170;8.592;2023-04-03T15:47:49;10.50;50.90
17399;DHT22;8817;48.170;8.592;2023-04-03T15:50:16;10.50;50.90
17399;DHT22;8817;48.170;8.592;2023-04-03T15:52:43;10.50;50.90
17399;DHT22;8817;48.170;8.592;2023-04-03T15:55:10;10.50;50.90
17399;DHT22;8817;48.170;8.592;2023-04-03T15:57:37;10.40;50.90
17399;DHT22;8817;48.170;8.592;2023-04-03T16:00:05;10.50;50.80
17399;DHT22;8817;48.170;8.592;2023-04-03T16:02:33;10.40;50.80
17399;DHT22;8817;48.170;8.592;2023-04-03T16:05:01;10.40;50.80
17399;DHT22;8817;48.170;8.592;2023-04-03T16:07:28;10.40;50.70
17399;DHT22;8817;48.170;8.592;2023-04-03T16:09:56;10.40;50.70
17399;DHT22;8817;48.170;8.592;2023-04-03T16:12:23;10.40;50.70
17399;DHT22;8817;48.170;8.592;2023-04-03T16:14:49;10.40;50.70
17399;DHT22;8817;48.170;8.592;2023-04-03T16:17:17;10.40;50.60
17399;DHT22;8817;48.170;8.592;2023-04-03T16:19:44;10.30;50.60
17399;DHT22;8817;48.170;8.592;2023-04-03T16:22:12;10.30;50.60
17399;DHT22;8817;48.170;8.592;2023-04-03T16:24:39;10.30;50.70